Time;durP1;ratioP1;P1;durP2;ratioP2;P2;SDS_P1;SDS_P2;PMS_P1;PMS_P2;Temp;Humidity;BMP_temperature;BMP_pressure;BME280_temperature;BME280_humidity;BME280_pressure;Samples;Min_cycle;Max_cycle;Signal;HPM_P1;HPM_P2
2024/01/26 00:02:53;;;;;;;;;;;;;;;;;;10450432;28;19909;-78
2024/01/26 00:07:53;;;;;;;;;;;;;;;;;;10443897;28;19927;-79
2024/01/26 00:12:55;;;;;;;;;;;;;;;;;;10449258;28;19920;-79
2024/01/26 00:17:55;;;;;;;;;;;;;;;;;;10465780;28;19930;-77
2024/01/26 00:22:55;;;;;;;;;;;;;;;;;;10460901;28;19965;-81
2024/01/26 00:27:55;;;;;;;;;;;;;;;;;;10450358;28;20033;-77
2024/01/26 00:32:56;;;;;;;;;;;;;;;;;;10452381;28;19928;-79
2024/01/26 00:37:58;;;;;;;;;;;;;;;;;;10475838;28;19936;-83
2024/01/26 00:42:58;;;;;;;;;;;;;;;;;;10463148;28;19913;-78
2024/01/26 00:47:58;;;;;;;;;;;;;;;;;;10457416;28;20382;-78
2024/01/26 00:52:58;;;;;;;;;;;;;;;;;;10452219;28;19919;-78
2024/01/26 00:58:00;;;;;;;;;;;;;;;;;;10445503;28;19912;-83
2024/01/26 01:03:00;;;;;;;;;;;;;;;;;;10457492;22;19950;-78
2024/01/26 01:08:00;;;;;;;;;;;;;;;;;;10461285;28;20288;-77
2024/01/26 01:13:00;;;;;;;;;;;;;;;;;;10460569;28;19920;-78
2024/01/26 01:18:00;;;;;;;;;;;;;;;;;;10463094;28;19909;-79
2024/01/26 01:23:00;;;;;;;;;;;;;;;;;;10453478;28;19909;-78
2024/01/26 01:28:01;;;;;;;;;;;;;;;;;;10458942;28;19965;-77
2024/01/26 01:33:01;;;;;;;;;;;;;;;;;;10456558;28;19912;-78
2024/01/26 01:38:01;;;;;;;;;;;;;;;;;;10452153;28;19923;-77
2024/01/26 01:43:01;;;;;;;;;;;;;;;;;;10434833;28;20030;-79
2024/01/26 01:48:01;;;;;;;;;;;;;;;;;;10454828;28;20430;-78
2024/01/26 01:53:01;;;;;;;;;;;;;;;;;;10445342;28;19913;-78
2024/01/26 01:58:02;;;;;;;;;;;;;;;;;;10455921;28;19909;-78
2024/01/26 02:03:02;;;;;;;;;;;;;;;;;;10453233;28;19925;-77
2024/01/26 02:08:02;;;;;;;;;;;;;;;;;;10422890;28;19931;-78
2024/01/26 02:13:03;;;;;;;;;;;;;;;;;;10420440;28;20294;-78
2024/01/26 02:18:03;;;;;;;;;;;;;;;;;;10414177;28;19948;-79
2024/01/26 02:23:04;;;;;;;;;;;;;;;;;;10398598;28;20416;-78
2024/01/26 02:28:04;;;;;;;;;;;;;;;;;;10426176;28;19912;-77
2024/01/26 02:33:04;;;;;;;;;;;;;;;;;;10426901;28;19920;-78
2024/01/26 02:38:04;;;;;;;;;;;;;;;;;;10427221;28;20466;-77
2024/01/26 02:43:04;;;;;;;;;;;;;;;;;;10427976;28;20000;-77
2024/01/26 02:48:04;;;;;;;;;;;;;;;;;;10424402;28;19923;-78
2024/01/26 02:53:04;;;;;;;;;;;;;;;;;;10423492;28;20274;-79
2024/01/26 02:58:04;;;;;;;;;;;;;;;;;;10435635;28;20303;-78
2024/01/26 03:03:06;;;;;;;;;;;;;;;;;;10427171;28;19936;-77
2024/01/26 03:08:06;;;;;;;;;;;;;;;;;;10448097;28;19913;-77
2024/01/26 03:13:06;;;;;;;;;;;;;;;;;;10460331;28;19916;-78
2024/01/26 03:18:06;;;;;;;;;;;;;;;;;;10449405;28;19912;-77
2024/01/26 03:23:06;;;;;;;;;;;;;;;;;;10466142;28;19948;-78
2024/01/26 03:28:06;;;;;;;;;;;;;;;;;;10463568;28;19915;-78
2024/01/26 03:33:07;;;;;;;;;;;;;;;;;;10456033;28;19935;-78
2024/01/26 03:38:07;;;;;;;;;;;;;;;;;;10440452;28;20007;-78
2024/01/26 03:43:07;;;;;;;;;;;;;;;;;;10464807;28;20370;-78
2024/01/26 03:48:07;;;;;;;;;;;;;;;;;;10459153;28;20291;-78
2024/01/26 03:53:07;;;;;;;;;;;;;;;;;;10459287;28;19916;-78
2024/01/26 03:58:07;;;;;;;;;;;;;;;;;;10462934;28;19918;-77
2024/01/26 04:03:07;;;;;;;;;;;;;;;;;;10451698;28;20425;-77
2024/01/26 04:08:08;;;;;;;;;;;;;;;;;;10457887;28;19916;-77
2024/01/26 04:13:08;;;;;;;;;;;;;;;;;;10473414;28;19916;-78
2024/01/26 04:18:08;;;;;;;;;;;;;;;;;;10471929;28;19983;-79
2024/01/26 04:23:08;;;;;;;;;;;;;;;;;;10462440;28;20552;-80
2024/01/26 04:28:09;;;;;;;;;;;;;;;;;;10463747;28;19955;-77
2024/01/26 04:33:09;;;;;;;;;;;;;;;;;;10463212;28;19917;-79
2024/01/26 04:38:09;;;;;;;;;;;;;;;;;;10459174;28;20386;-77
2024/01/26 04:43:09;;;;;;;;;;;;;;;;;;10439305;28;20315;-78
2024/01/26 04:48:09;;;;;;;;;;;;;;;;;;10454629;28;19912;-77
2024/01/26 04:53:10;;;;;;;;;;;;;;;;;;10456635;28;19913;-79
2024/01/26 04:58:10;;;;;;;;;;;;;;;;;;10443747;28;20011;-78
2024/01/26 05:03:11;;;;;;;;;;;;;;;;;;10452226;28;19925;-78
2024/01/26 05:08:11;;;;;;;;;;;;;;;;;;10429413;28;20259;-78
2024/01/26 05:13:11;;;;;;;;;;;;;;;;;;10427867;28;20335;-77
2024/01/26 05:18:11;;;;;;;;;;;;;;;;;;10427956;28;19913;-78
2024/01/26 05:23:12;;;;;;;;;;;;;;;;;;10427487;28;19920;-79
2024/01/26 05:28:12;;;;;;;;;;;;;;;;;;10427562;28;19932;-78
2024/01/26 05:33:12;;;;;;;;;;;;;;;;;;10427611;28;20262;-78
2024/01/26 05:38:12;;;;;;;;;;;;;;;;;;10425473;28;19943;-77
2024/01/26 05:43:12;;;;;;;;;;;;;;;;;;10415790;28;19909;-78
2024/01/26 05:48:12;;;;;;;;;;;;;;;;;;10427530;28;19913;-78
2024/01/26 05:53:12;;;;;;;;;;;;;;;;;;10405241;28;19964;-77
2024/01/26 05:58:19;;;;;;;;;;;;;;;;;;10420368;28;19917;-80
2024/01/26 06:03:19;;;;;;;;;;;;;;;;;;10431757;28;19921;-82
2024/01/26 06:08:20;;;;;;;;;;;;;;;;;;10443289;28;19912;-83
2024/01/26 06:13:20;;;;;;;;;;;;;;;;;;10461880;28;19913;-82
2024/01/26 06:18:20;;;;;;;;;;;;;;;;;;10443994;28;19913;-83
2024/01/26 06:23:21;;;;;;;;;;;;;;;;;;10464356;28;19948;-83
2024/01/26 06:28:21;;;;;;;;;;;;;;;;;;10458897;28;20417;-82
2024/01/26 06:33:21;;;;;;;;;;;;;;;;;;10451540;28;19912;-84
2024/01/26 06:38:21;;;;;;;;;;;;;;;;;;10455477;28;19909;-82
2024/01/26 06:43:21;;;;;;;;;;;;;;;;;;10464690;28;19969;-83
2024/01/26 06:48:23;;;;;;;;;;;;;;;;;;10443315;28;19908;-83
2024/01/26 06:53:23;;;;;;;;;;;;;;;;;;10473094;28;20007;-84
2024/01/26 06:58:23;;;;;;;;;;;;;;;;;;10465474;28;19913;-83
2024/01/26 07:03:23;;;;;;;;;;;;;;;;;;10452672;28;19956;-83
2024/01/26 07:08:23;;;;;;;;;;;;;;;;;;10454749;28;19908;-84
2024/01/26 07:13:23;;;;;;;;;;;;;;;;;;10466856;28;19913;-83
2024/01/26 07:18:23;;;;;;;;;;;;;;;;;;10468841;28;19923;-83
2024/01/26 07:23:24;;;;;;;;;;;;;;;;;;10468999;28;20318;-83
2024/01/26 07:28:24;;;;;;;;;;;;;;;;;;10469047;28;19920;-83
2024/01/26 07:33:24;;;;;;;;;;;;;;;;;;10448735;28;19917;-82
2024/01/26 07:38:24;;;;;;;;;;;;;;;;;;10448647;28;19909;-84
2024/01/26 07:43:24;;;;;;;;;;;;;;;;;;10468267;28;20276;-84
2024/01/26 07:48:24;;;;;;;;;;;;;;;;;;10449502;28;20378;-83
2024/01/26 07:53:24;;;;;;;;;;;;;;;;;;10451667;28;19912;-84
2024/01/26 07:58:25;;;;;;;;;;;;;;;;;;10468968;28;19957;-85
2024/01/26 08:03:25;;;;;;;;;;;;;;;;;;10466932;28;20382;-84
2024/01/26 08:08:25;;;;;;;;;;;;;;;;;;10450360;28;19924;-85
2024/01/26 08:13:25;;;;;;;;;;;;;;;;;;10468355;28;19912;-83
2024/01/26 08:18:25;;;;;;;;;;;;;;;;;;10466905;28;19912;-83
2024/01/26 08:23:26;;;;;;;;;;;;;;;;;;10468537;28;19963;-83
2024/01/26 08:28:27;;;;;;;;;;;;;;;;;;10464038;28;20481;-84
2024/01/26 08:33:27;;;;;;;;;;;;;;;;;;10465250;28;19916;-83
2024/01/26 08:38:27;;;;;;;;;;;;;;;;;;10465768;28;20379;-83
2024/01/26 08:43:27;;;;;;;;;;;;;;;;;;10464244;28;19908;-84
2024/01/26 08:48:27;;;;;;;;;;;;;;;;;;10451305;28;19916;-83
2024/01/26 08:53:27;;;;;;;;;;;;;;;;;;10450121;28;19927;-84
2024/01/26 08:58:28;;;;;;;;;;;;;;;;;;10465287;28;19916;-83
2024/01/26 09:03:28;;;;;;;;;;;;;;;;;;10465297;28;20418;-84
2024/01/26 09:08:28;;;;;;;;;;;;;;;;;;10463040;28;19966;-84
2024/01/26 09:13:28;;;;;;;;;;;;;;;;;;10464932;28;19912;-84
2024/01/26 09:18:28;;;;;;;;;;;;;;;;;;10465892;28;19920;-83
2024/01/26 09:23:29;;;;;;;;;;;;;;;;;;10462532;28;19920;-84
2024/01/26 09:28:29;;;;;;;;;;;;;;;;;;10444860;28;19916;-84
2024/01/26 09:33:29;;;;;;;;;;;;;;;;;;10465027;28;19981;-84
2024/01/26 09:38:29;;;;;;;;;;;;;;;;;;10463020;28;20400;-84
2024/01/26 09:43:29;;;;;;;;;;;;;;;;;;10467316;28;20097;-84
2024/01/26 09:48:29;;;;;;;;;;;;;;;;;;10447477;28;20419;-84
2024/01/26 09:53:29;;;;;;;;;;;;;;;;;;10465326;28;20283;-84
2024/01/26 09:58:29;;;;;;;;;;;;;;;;;;10444239;28;19909;-83
2024/01/26 10:03:29;;;;;;;;;;;;;;;;;;10463504;28;19970;-82
2024/01/26 10:08:30;;;;;;;;;;;;;;;;;;10445384;28;19957;-83
2024/01/26 10:13:30;;;;;;;;;;;;;;;;;;10445039;28;19979;-84
2024/01/26 10:18:30;;;;;;;;;;;;;;;;;;10447488;28;20533;-84
2024/01/26 10:23:30;;;;;;;;;;;;;;;;;;10465442;28;20031;-84
2024/01/26 10:28:30;;;;;;;;;;;;;;;;;;10473037;28;19990;-83
2024/01/26 10:33:33;;;;;;;;;;;;;;;;;;10463260;28;19924;-84
2024/01/26 10:38:33;;;;;;;;;;;;;;;;;;10473903;28;20442;-84
2024/01/26 10:43:33;;;;;;;;;;;;;;;;;;10455173;28;20011;-83
2024/01/26 10:48:33;;;;;;;;;;;;;;;;;;10452371;28;19919;-86
2024/01/26 10:53:34;;;;;;;;;;;;;;;;;;10470505;28;20427;-84
2024/01/26 10:58:34;;;;;;;;;;;;;;;;;;10473598;28;19912;-84
2024/01/26 11:03:34;;;;;;;;;;;;;;;;;;10453566;28;19935;-82
2024/01/26 11:08:34;;;;;;;;;;;;;;;;;;10470263;28;20319;-83
2024/01/26 11:13:35;;;;;;;;;;;;;;;;;;10468991;28;19960;-84
2024/01/26 11:18:36;;;;;;;;;;;;;;;;;;10450318;28;19909;-83
2024/01/26 11:23:36;;;;;;;;;;;;;;;;;;10468284;28;20326;-84
2024/01/26 11:28:36;;;;;;;;;;;;;;;;;;10470461;28;20031;-83
2024/01/26 11:33:37;;;;;;;;;;;;;;;;;;10469076;28;20347;-83
2024/01/26 11:38:37;;;;;;;;;;;;;;;;;;10453353;28;19917;-84
2024/01/26 11:43:37;;;;;;;;;;;;;;;;;;10451829;28;19912;-82
2024/01/26 11:48:37;;;;;;;;;;;;;;;;;;10448152;28;20302;-84
2024/01/26 11:53:38;;;;;;;;;;;;;;;;;;10448790;28;19917;-84
2024/01/26 11:58:39;;;;;;;;;;;;;;;;;;10437972;28;19912;-83
2024/01/26 12:03:40;;;;;;;;;;;;;;;;;;10448683;28;19920;-85
2024/01/26 12:08:40;;;;;;;;;;;;;;;;;;10466092;28;19908;-84
2024/01/26 12:13:41;;;;;;;;;;;;;;;;;;10468919;28;20298;-84
2024/01/26 12:18:41;;;;;;;;;;;;;;;;;;10466780;28;19909;-84
2024/01/26 12:23:41;;;;;;;;;;;;;;;;;;10465713;28;20368;-82
2024/01/26 12:28:41;;;;;;;;;;;;;;;;;;10450114;28;19924;-83
2024/01/26 12:33:41;;;;;;;;;;;;;;;;;;10431098;28;19931;-81
2024/01/26 12:38:41;;;;;;;;;;;;;;;;;;10466164;28;20306;-81
2024/01/26 12:43:42;;;;;;;;;;;;;;;;;;10448518;28;20409;-82
2024/01/26 12:48:42;;;;;;;;;;;;;;;;;;10468115;28;20002;-82
2024/01/26 12:53:42;;;;;;;;;;;;;;;;;;10474706;28;20341;-81
2024/01/26 12:58:44;;;;;;;;;;;;;;;;;;10473221;28;19958;-81
2024/01/26 13:03:44;;;;;;;;;;;;;;;;;;10456028;28;20282;-82
2024/01/26 13:08:44;;;;;;;;;;;;;;;;;;10453671;28;20007;-83
2024/01/26 13:13:45;;;;;;;;;;;;;;;;;;10471616;28;19908;-84
2024/01/26 13:18:46;;;;;;;;;;;;;;;;;;10471145;28;20663;-83
2024/01/26 13:23:47;;;;;;;;;;;;;;;;;;10470025;28;19948;-82
2024/01/26 13:28:47;;;;;;;;;;;;;;;;;;10453247;28;19958;-84
2024/01/26 13:33:47;;;;;;;;;;;;;;;;;;10457135;28;19983;-84
2024/01/26 13:38:47;;;;;;;;;;;;;;;;;;10470887;28;19957;-83
2024/01/26 13:43:49;;;;;;;;;;;;;;;;;;10472479;28;20006;-83
2024/01/26 13:48:49;;;;;;;;;;;;;;;;;;10473360;28;20054;-83
2024/01/26 13:53:49;;;;;;;;;;;;;;;;;;10471548;28;19983;-82
2024/01/26 13:58:49;;;;;;;;;;;;;;;;;;10465840;28;19948;-84
2024/01/26 14:03:49;;;;;;;;;;;;;;;;;;10462809;28;19920;-83
2024/01/26 14:08:49;;;;;;;;;;;;;;;;;;10476532;28;20641;-83
2024/01/26 14:13:55;;;;;;;;;;;;;;;;;;10471129;28;19909;-83
2024/01/26 14:24:08;;;;;;;;;;;;;;;;;;10443179;28;20314;-82
2024/01/26 14:29:15;;;;;;;;;;;;;;;;;;10462785;28;19913;-83
2024/01/26 14:34:15;;;;;;;;;;;;;;;;;;10446837;28;20374;-82
2024/01/26 14:39:15;;;;;;;;;;;;;;;;;;10448959;28;19931;-82
2024/01/26 14:44:16;;;;;;;;;;;;;;;;;;10468525;28;20733;-83
2024/01/26 14:49:17;;;;;;;;;;;;;;;;;;10443595;28;19915;-82
2024/01/26 14:54:18;;;;;;;;;;;;;;;;;;10452774;28;19919;-83
2024/01/26 14:59:18;;;;;;;;;;;;;;;;;;10450890;28;19913;-83
2024/01/26 15:04:19;;;;;;;;;;;;;;;;;;10469325;28;19925;-82
2024/01/26 15:09:19;;;;;;;;;;;;;;;;;;10453271;28;19908;-82
2024/01/26 15:14:19;;;;;;;;;;;;;;;;;;10427595;28;20269;-82
2024/01/26 15:19:19;;;;;;;;;;;;;;;;;;10460091;28;19908;-82
2024/01/26 15:24:20;;;;;;;;;;;;;;;;;;10469074;28;20011;-82
2024/01/26 15:29:20;;;;;;;;;;;;;;;;;;10451888;28;19993;-82
2024/01/26 15:34:20;;;;;;;;;;;;;;;;;;10468677;28;19912;-83
2024/01/26 15:39:23;;;;;;;;;;;;;;;;;;10470650;28;19973;-82
2024/01/26 15:44:23;;;;;;;;;;;;;;;;;;10462720;28;20361;-84
2024/01/26 15:49:24;;;;;;;;;;;;;;;;;;10463931;28;19914;-83
2024/01/26 15:54:24;;;;;;;;;;;;;;;;;;10467744;28;20314;-83
2024/01/26 15:59:24;;;;;;;;;;;;;;;;;;10428760;28;19908;-82
2024/01/26 16:04:24;;;;;;;;;;;;;;;;;;10459614;28;20046;-82
2024/01/26 16:09:24;;;;;;;;;;;;;;;;;;10446636;28;20452;-83
2024/01/26 16:14:24;;;;;;;;;;;;;;;;;;10457240;28;19912;-84
2024/01/26 16:19:24;;;;;;;;;;;;;;;;;;10441932;28;19935;-83
2024/01/26 16:24:24;;;;;;;;;;;;;;;;;;10460714;28;20348;-83
2024/01/26 16:29:25;;;;;;;;;;;;;;;;;;10460308;28;19913;-82
2024/01/26 16:34:25;;;;;;;;;;;;;;;;;;10468217;28;19913;-83
2024/01/26 16:39:25;;;;;;;;;;;;;;;;;;10466857;28;19915;-82
2024/01/26 16:44:26;;;;;;;;;;;;;;;;;;10455966;28;19927;-82
2024/01/26 16:49:27;;;;;;;;;;;;;;;;;;10469723;28;19908;-88
2024/01/26 16:54:27;;;;;;;;;;;;;;;;;;10443914;28;20703;-85
2024/01/26 16:59:27;;;;;;;;;;;;;;;;;;10450491;28;20453;-83
2024/01/26 17:04:27;;;;;;;;;;;;;;;;;;10457018;28;20513;-83
2024/01/26 17:09:28;;;;;;;;;;;;;;;;;;10456218;28;19913;-84
2024/01/26 17:14:28;;;;;;;;;;;;;;;;;;10468035;28;19935;-84
2024/01/26 17:19:28;;;;;;;;;;;;;;;;;;10468002;28;20003;-83
2024/01/26 17:24:28;;;;;;;;;;;;;;;;;;10438549;28;20694;-89
2024/01/26 17:29:28;;;;;;;;;;;;;;;;;;10453862;28;19920;-84
2024/01/26 17:34:28;;;;;;;;;;;;;;;;;;10445886;28;19915;-86
2024/01/26 17:39:28;;;;;;;;;;;;;;;;;;10441174;28;19916;-81
2024/01/26 17:44:28;;;;;;;;;;;;;;;;;;10465595;28;20331;-80
2024/01/26 17:49:29;;;;;;;;;;;;;;;;;;10460676;28;20464;-85
2024/01/26 17:54:29;;;;;;;;;;;;;;;;;;10456190;28;20009;-81
2024/01/26 17:59:30;;;;;;;;;;;;;;;;;;10459747;28;19969;-78
2024/01/26 18:04:30;;;;;;;;;;;;;;;;;;10449379;28;19920;-79
2024/01/26 18:09:30;;;;;;;;;;;;;;;;;;10451352;28;19909;-79
2024/01/26 18:14:30;;;;;;;;;;;;;;;;;;10442733;28;20319;-79
2024/01/26 18:19:30;;;;;;;;;;;;;;;;;;10440345;28;19913;-79
2024/01/26 18:24:30;;;;;;;;;;;;;;;;;;10452015;28;19921;-82
2024/01/26 18:29:31;;;;;;;;;;;;;;;;;;10433856;28;19917;-83
2024/01/26 18:34:31;;;;;;;;;;;;;;;;;;10437021;28;20286;-85
2024/01/26 18:39:31;;;;;;;;;;;;;;;;;;10441307;28;19924;-81
2024/01/26 18:44:31;;;;;;;;;;;;;;;;;;10455822;28;19919;-78
2024/01/26 18:49:33;;;;;;;;;;;;;;;;;;10460445;28;20371;-80
2024/01/26 18:54:33;;;;;;;;;;;;;;;;;;10462962;28;20330;-80
2024/01/26 18:59:33;;;;;;;;;;;;;;;;;;10443989;28;19912;-80
2024/01/26 19:04:34;;;;;;;;;;;;;;;;;;10463290;28;19928;-81
2024/01/26 19:09:34;;;;;;;;;;;;;;;;;;10460871;28;20352;-77
2024/01/26 19:14:34;;;;;;;;;;;;;;;;;;10463260;28;19966;-76
2024/01/26 19:19:37;;;;;;;;;;;;;;;;;;10458895;28;20369;-76
2024/01/26 19:24:37;;;;;;;;;;;;;;;;;;10440735;28;19924;-76
2024/01/26 19:29:39;;;;;;;;;;;;;;;;;;10436613;28;19924;-79
2024/01/26 19:34:40;;;;;;;;;;;;;;;;;;10461168;28;20298;-77
2024/01/26 19:39:44;;;;;;;;;;;;;;;;;;10448117;28;19908;-80
2024/01/26 19:44:47;;;;;;;;;;;;;;;;;;10452373;28;19959;-81
2024/01/26 19:49:48;;;;;;;;;;;;;;;;;;10464132;28;19978;-81
2024/01/26 19:54:48;;;;;;;;;;;;;;;;;;10440157;28;19974;-79
2024/01/26 19:59:48;;;;;;;;;;;;;;;;;;10416855;28;20680;-80
2024/01/26 20:04:48;;;;;;;;;;;;;;;;;;10397394;28;20377;-79
2024/01/26 20:09:48;;;;;;;;;;;;;;;;;;10459002;28;19981;-79
2024/01/26 20:14:48;;;;;;;;;;;;;;;;;;10439471;28;19927;-80
2024/01/26 20:19:48;;;;;;;;;;;;;;;;;;10456016;28;19921;-81
2024/01/26 20:24:49;;;;;;;;;;;;;;;;;;10455102;28;19924;-79
2024/01/26 20:29:49;;;;;;;;;;;;;;;;;;10459163;28;19920;-79
2024/01/26 20:34:51;;;;;;;;;;;;;;;;;;10454890;28;19916;-79
2024/01/26 20:39:51;;;;;;;;;;;;;;;;;;10452750;28;19920;-78
2024/01/26 20:44:51;;;;;;;;;;;;;;;;;;10440687;28;20304;-79
2024/01/26 20:49:51;;;;;;;;;;;;;;;;;;10457877;28;19935;-82
2024/01/26 20:54:52;;;;;;;;;;;;;;;;;;10457578;28;19912;-80
2024/01/26 20:59:52;;;;;;;;;;;;;;;;;;10461635;28;19959;-81
2024/01/26 21:04:52;;;;;;;;;;;;;;;;;;10457478;28;20359;-78
2024/01/26 21:09:52;;;;;;;;;;;;;;;;;;10436343;28;19909;-79
2024/01/26 21:14:52;;;;;;;;;;;;;;;;;;10437320;28;19924;-80
2024/01/26 21:19:52;;;;;;;;;;;;;;;;;;10456196;28;19912;-78
2024/01/26 21:24:53;;;;;;;;;;;;;;;;;;10451399;28;20031;-78
2024/01/26 21:29:53;;;;;;;;;;;;;;;;;;10453870;28;20479;-79
2024/01/26 21:34:55;;;;;;;;;;;;;;;;;;10454394;28;20362;-78
2024/01/26 21:39:55;;;;;;;;;;;;;;;;;;10438405;28;20426;-79
2024/01/26 21:44:55;;;;;;;;;;;;;;;;;;10454546;28;19992;-79
2024/01/26 21:49:55;;;;;;;;;;;;;;;;;;10454993;28;19930;-79
2024/01/26 21:54:55;;;;;;;;;;;;;;;;;;10452504;28;19909;-79
2024/01/26 21:59:55;;;;;;;;;;;;;;;;;;10453108;28;19908;-78
2024/01/26 22:04:55;;;;;;;;;;;;;;;;;;10452501;28;19931;-79
2024/01/26 22:09:56;;;;;;;;;;;;;;;;;;10451976;28;20173;-80
2024/01/26 22:14:56;;;;;;;;;;;;;;;;;;10452632;28;20364;-79
2024/01/26 22:19:56;;;;;;;;;;;;;;;;;;10453258;28;20435;-78
2024/01/26 22:24:56;;;;;;;;;;;;;;;;;;10448160;28;19975;-79
2024/01/26 22:29:57;;;;;;;;;;;;;;;;;;10454591;28;19913;-79
2024/01/26 22:34:57;;;;;;;;;;;;;;;;;;10431985;28;19913;-79
2024/01/26 22:39:57;;;;;;;;;;;;;;;;;;10454138;28;19924;-77
2024/01/26 22:44:57;;;;;;;;;;;;;;;;;;10430530;28;19921;-80
2024/01/26 22:49:58;;;;;;;;;;;;;;;;;;10454104;28;19915;-79
2024/01/26 22:54:58;;;;;;;;;;;;;;;;;;10453820;28;19969;-80
2024/01/26 22:59:58;;;;;;;;;;;;;;;;;;10452844;28;19959;-80
2024/01/26 23:04:58;;;;;;;;;;;;;;;;;;10451904;28;20033;-80
2024/01/26 23:09:58;;;;;;;;;;;;;;;;;;10451437;28;20480;-80
2024/01/26 23:14:58;;;;;;;;;;;;;;;;;;10449745;28;20034;-79
2024/01/26 23:19:58;;;;;;;;;;;;;;;;;;10451362;28;20003;-79
2024/01/26 23:24:58;;;;;;;;;;;;;;;;;;10451131;28;20367;-81
2024/01/26 23:29:58;;;;;;;;;;;;;;;;;;10454649;28;19927;-78
2024/01/26 23:35:04;;;;;;;;;;;;;;;;;;10467684;28;19917;-79
2024/01/26 23:40:05;;;;;;;;;;;;;;;;;;10475588;28;20385;-78
2024/01/26 23:45:06;;;;;;;;;;;;;;;;;;10469986;28;20002;-79
2024/01/26 23:50:06;;;;;;;;;;;;;;;;;;10456340;28;19909;-79
2024/01/26 23:55:06;;;;;;;;;;;;;;;;;;10470519;28;19909;-80
